sensor_id;sensor_type;location;lat;lon;timestamp;P1;durP1;ratioP1;P2;durP2;ratioP2
19547;SDS011;9919;58.014;11.826;2024-02-21T00:00:22;2.35;;;1.05;;
19547;SDS011;9919;58.014;11.826;2024-02-21T00:02:23;1.73;;;1.08;;
19547;SDS011;9919;58.014;11.826;2024-02-21T00:04:25;2.83;;;1.08;;
19547;SDS011;9919;58.014;11.826;2024-02-21T00:06:26;2.55;;;1.67;;
19547;SDS011;9919;58.014;11.826;2024-02-21T00:08:27;2.05;;;0.57;;
19547;SDS011;9919;58.014;11.826;2024-02-21T00:10:28;1.45;;;1.00;;
19547;SDS011;9919;58.014;11.826;2024-02-21T00:12:32;2.17;;;0.68;;
19547;SDS011;9919;58.014;11.826;2024-02-21T00:14:33;2.65;;;1.23;;
19547;SDS011;9919;58.014;11.826;2024-02-21T00:16:34;3.38;;;0.85;;
19547;SDS011;9919;58.014;11.826;2024-02-21T00:18:36;3.90;;;1.02;;
19547;SDS011;9919;58.014;11.826;2024-02-21T00:20:38;3.50;;;1.00;;
19547;SDS011;9919;58.014;11.826;2024-02-21T00:22:39;2.42;;;1.08;;
19547;SDS011;9919;58.014;11.826;2024-02-21T00:24:40;3.20;;;1.13;;
19547;SDS011;9919;58.014;11.826;2024-02-21T00:26:42;3.15;;;0.80;;
19547;SDS011;9919;58.014;11.826;2024-02-21T00:28:43;1.75;;;1.15;;
19547;SDS011;9919;58.014;11.826;2024-02-21T00:30:44;3.92;;;0.75;;
19547;SDS011;9919;58.014;11.826;2024-02-21T00:32:47;1.20;;;0.98;;
19547;SDS011;9919;58.014;11.826;2024-02-21T00:34:49;3.03;;;1.15;;
19547;SDS011;9919;58.014;11.826;2024-02-21T00:36:50;0.75;;;0.70;;
19547;SDS011;9919;58.014;11.826;2024-02-21T00:38:51;2.35;;;0.95;;
19547;SDS011;9919;58.014;11.826;2024-02-21T00:40:53;1.25;;;0.98;;
19547;SDS011;9919;58.014;11.826;2024-02-21T00:42:54;1.20;;;0.73;;
19547;SDS011;9919;58.014;11.826;2024-02-21T00:44:55;4.03;;;1.50;;
19547;SDS011;9919;58.014;11.826;2024-02-21T00:46:57;1.48;;;1.00;;
19547;SDS011;9919;58.014;11.826;2024-02-21T00:48:58;0.93;;;0.52;;
19547;SDS011;9919;58.014;11.826;2024-02-21T00:50:59;1.90;;;0.85;;
19547;SDS011;9919;58.014;11.826;2024-02-21T00:53:01;1.45;;;0.82;;
19547;SDS011;9919;58.014;11.826;2024-02-21T00:55:02;2.17;;;1.23;;
19547;SDS011;9919;58.014;11.826;2024-02-21T00:57:04;0.73;;;0.73;;
19547;SDS011;9919;58.014;11.826;2024-02-21T00:59:06;0.85;;;0.55;;
19547;SDS011;9919;58.014;11.826;2024-02-21T01:01:07;2.90;;;0.93;;
19547;SDS011;9919;58.014;11.826;2024-02-21T01:03:09;1.45;;;0.77;;
19547;SDS011;9919;58.014;11.826;2024-02-21T01:05:10;1.67;;;1.30;;
19547;SDS011;9919;58.014;11.826;2024-02-21T01:07:12;1.95;;;0.70;;
19547;SDS011;9919;58.014;11.826;2024-02-21T01:09:13;1.13;;;0.80;;
19547;SDS011;9919;58.014;11.826;2024-02-21T01:11:15;1.48;;;1.00;;
19547;SDS011;9919;58.014;11.826;2024-02-21T01:13:17;1.95;;;1.05;;
19547;SDS011;9919;58.014;11.826;2024-02-21T01:15:18;1.35;;;0.90;;
19547;SDS011;9919;58.014;11.826;2024-02-21T01:17:19;2.85;;;0.75;;
19547;SDS011;9919;58.014;11.826;2024-02-21T01:19:21;2.20;;;0.77;;
19547;SDS011;9919;58.014;11.826;2024-02-21T01:21:22;3.60;;;0.98;;
19547;SDS011;9919;58.014;11.826;2024-02-21T01:23:23;0.52;;;0.52;;
19547;SDS011;9919;58.014;11.826;2024-02-21T01:25:25;1.10;;;1.02;;
19547;SDS011;9919;58.014;11.826;2024-02-21T01:27:26;2.50;;;0.90;;
19547;SDS011;9919;58.014;11.826;2024-02-21T01:29:28;1.98;;;1.30;;
19547;SDS011;9919;58.014;11.826;2024-02-21T01:31:29;1.17;;;0.80;;
19547;SDS011;9919;58.014;11.826;2024-02-21T01:33:30;1.70;;;1.10;;
19547;SDS011;9919;58.014;11.826;2024-02-21T01:35:35;0.90;;;0.70;;
19547;SDS011;9919;58.014;11.826;2024-02-21T01:37:37;2.88;;;1.27;;
19547;SDS011;9919;58.014;11.826;2024-02-21T01:39:38;1.08;;;0.80;;
19547;SDS011;9919;58.014;11.826;2024-02-21T01:41:39;3.40;;;1.13;;
19547;SDS011;9919;58.014;11.826;2024-02-21T01:43:41;2.13;;;1.17;;
19547;SDS011;9919;58.014;11.826;2024-02-21T01:45:42;0.73;;;0.52;;
19547;SDS011;9919;58.014;11.826;2024-02-21T01:47:45;0.68;;;0.68;;
19547;SDS011;9919;58.014;11.826;2024-02-21T01:49:47;0.77;;;0.77;;
19547;SDS011;9919;58.014;11.826;2024-02-21T01:51:48;2.95;;;0.90;;
19547;SDS011;9919;58.014;11.826;2024-02-21T01:53:51;4.05;;;1.15;;
19547;SDS011;9919;58.014;11.826;2024-02-21T01:55:53;1.48;;;0.77;;
19547;SDS011;9919;58.014;11.826;2024-02-21T01:57:55;1.83;;;0.82;;
19547;SDS011;9919;58.014;11.826;2024-02-21T01:59:56;1.88;;;1.05;;
19547;SDS011;9919;58.014;11.826;2024-02-21T02:01:59;1.05;;;0.95;;
19547;SDS011;9919;58.014;11.826;2024-02-21T02:04:01;2.85;;;0.85;;
19547;SDS011;9919;58.014;11.826;2024-02-21T02:06:05;1.63;;;0.80;;
19547;SDS011;9919;58.014;11.826;2024-02-21T02:08:06;3.90;;;1.00;;
19547;SDS011;9919;58.014;11.826;2024-02-21T02:10:08;3.47;;;1.08;;
19547;SDS011;9919;58.014;11.826;2024-02-21T02:12:10;1.73;;;0.88;;
19547;SDS011;9919;58.014;11.826;2024-02-21T02:14:11;2.00;;;1.13;;
19547;SDS011;9919;58.014;11.826;2024-02-21T02:16:12;2.80;;;0.80;;
19547;SDS011;9919;58.014;11.826;2024-02-21T02:18:15;1.02;;;0.88;;
19547;SDS011;9919;58.014;11.826;2024-02-21T02:20:17;0.60;;;0.50;;
19547;SDS011;9919;58.014;11.826;2024-02-21T02:22:19;0.98;;;0.77;;
19547;SDS011;9919;58.014;11.826;2024-02-21T02:24:29;2.47;;;0.90;;
19547;SDS011;9919;58.014;11.826;2024-02-21T02:26:30;0.50;;;0.50;;
19547;SDS011;9919;58.014;11.826;2024-02-21T02:28:32;1.38;;;0.85;;
19547;SDS011;9919;58.014;11.826;2024-02-21T02:30:33;0.68;;;0.68;;
19547;SDS011;9919;58.014;11.826;2024-02-21T02:32:38;0.40;;;0.40;;
19547;SDS011;9919;58.014;11.826;2024-02-21T02:34:40;0.60;;;0.60;;
19547;SDS011;9919;58.014;11.826;2024-02-21T02:36:42;1.13;;;0.80;;
19547;SDS011;9919;58.014;11.826;2024-02-21T02:38:43;2.65;;;0.68;;
19547;SDS011;9919;58.014;11.826;2024-02-21T02:40:44;0.50;;;0.50;;
19547;SDS011;9919;58.014;11.826;2024-02-21T02:42:46;0.52;;;0.50;;
19547;SDS011;9919;58.014;11.826;2024-02-21T02:44:48;2.53;;;0.65;;
19547;SDS011;9919;58.014;11.826;2024-02-21T02:46:50;1.75;;;0.70;;
19547;SDS011;9919;58.014;11.826;2024-02-21T02:48:51;1.58;;;0.90;;
19547;SDS011;9919;58.014;11.826;2024-02-21T02:50:52;0.80;;;0.30;;
19547;SDS011;9919;58.014;11.826;2024-02-21T02:52:54;0.40;;;0.40;;
19547;SDS011;9919;58.014;11.826;2024-02-21T02:54:55;1.00;;;0.88;;
19547;SDS011;9919;58.014;11.826;2024-02-21T02:56:58;1.98;;;0.85;;
19547;SDS011;9919;58.014;11.826;2024-02-21T02:58:59;0.75;;;0.73;;
19547;SDS011;9919;58.014;11.826;2024-02-21T03:01:00;0.55;;;0.55;;
19547;SDS011;9919;58.014;11.826;2024-02-21T03:03:02;0.52;;;0.52;;
19547;SDS011;9919;58.014;11.826;2024-02-21T03:05:12;0.73;;;0.68;;
19547;SDS011;9919;58.014;11.826;2024-02-21T03:07:17;1.95;;;0.75;;
19547;SDS011;9919;58.014;11.826;2024-02-21T03:09:19;1.15;;;0.75;;
19547;SDS011;9919;58.014;11.826;2024-02-21T03:11:20;0.82;;;0.70;;
19547;SDS011;9919;58.014;11.826;2024-02-21T03:13:28;0.88;;;0.75;;
19547;SDS011;9919;58.014;11.826;2024-02-21T03:15:30;1.17;;;0.63;;
19547;SDS011;9919;58.014;11.826;2024-02-21T03:17:31;1.38;;;0.70;;
19547;SDS011;9919;58.014;11.826;2024-02-21T03:19:36;0.55;;;0.55;;
19547;SDS011;9919;58.014;11.826;2024-02-21T03:21:37;1.17;;;0.90;;
19547;SDS011;9919;58.014;11.826;2024-02-21T03:23:39;0.45;;;0.40;;
19547;SDS011;9919;58.014;11.826;2024-02-21T03:25:40;0.65;;;0.65;;
19547;SDS011;9919;58.014;11.826;2024-02-21T03:27:42;0.80;;;0.80;;
19547;SDS011;9919;58.014;11.826;2024-02-21T03:29:43;0.90;;;0.90;;
19547;SDS011;9919;58.014;11.826;2024-02-21T03:31:44;0.68;;;0.68;;
19547;SDS011;9919;58.014;11.826;2024-02-21T03:33:46;1.65;;;1.00;;
19547;SDS011;9919;58.014;11.826;2024-02-21T03:35:47;1.27;;;0.50;;
19547;SDS011;9919;58.014;11.826;2024-02-21T03:37:50;0.50;;;0.50;;
19547;SDS011;9919;58.014;11.826;2024-02-21T03:39:51;1.27;;;0.98;;
19547;SDS011;9919;58.014;11.826;2024-02-21T03:41:53;0.40;;;0.40;;
19547;SDS011;9919;58.014;11.826;2024-02-21T03:43:55;0.60;;;0.60;;
19547;SDS011;9919;58.014;11.826;2024-02-21T03:45:56;0.63;;;0.60;;
19547;SDS011;9919;58.014;11.826;2024-02-21T03:47:58;1.92;;;0.55;;
19547;SDS011;9919;58.014;11.826;2024-02-21T03:49:59;0.52;;;0.30;;
19547;SDS011;9919;58.014;11.826;2024-02-21T03:52:01;0.98;;;0.63;;
19547;SDS011;9919;58.014;11.826;2024-02-21T03:54:02;0.65;;;0.30;;
19547;SDS011;9919;58.014;11.826;2024-02-21T03:56:04;0.50;;;0.50;;
19547;SDS011;9919;58.014;11.826;2024-02-21T03:58:05;0.38;;;0.35;;
19547;SDS011;9919;58.014;11.826;2024-02-21T04:00:07;1.48;;;0.73;;
19547;SDS011;9919;58.014;11.826;2024-02-21T04:02:10;0.60;;;0.60;;
19547;SDS011;9919;58.014;11.826;2024-02-21T04:04:12;0.50;;;0.50;;
19547;SDS011;9919;58.014;11.826;2024-02-21T04:06:14;0.50;;;0.50;;
19547;SDS011;9919;58.014;11.826;2024-02-21T04:08:15;0.63;;;0.57;;
19547;SDS011;9919;58.014;11.826;2024-02-21T04:10:17;1.00;;;0.75;;
19547;SDS011;9919;58.014;11.826;2024-02-21T04:12:18;0.68;;;0.68;;
19547;SDS011;9919;58.014;11.826;2024-02-21T04:14:21;0.57;;;0.20;;
19547;SDS011;9919;58.014;11.826;2024-02-21T04:16:22;1.10;;;0.73;;
19547;SDS011;9919;58.014;11.826;2024-02-21T04:18:23;0.20;;;0.20;;
19547;SDS011;9919;58.014;11.826;2024-02-21T04:20:25;0.85;;;0.45;;
19547;SDS011;9919;58.014;11.826;2024-02-21T04:22:26;0.68;;;0.68;;
19547;SDS011;9919;58.014;11.826;2024-02-21T04:24:28;0.63;;;0.63;;
19547;SDS011;9919;58.014;11.826;2024-02-21T04:26:29;0.40;;;0.40;;
19547;SDS011;9919;58.014;11.826;2024-02-21T04:28:30;0.68;;;0.57;;
19547;SDS011;9919;58.014;11.826;2024-02-21T04:30:32;1.05;;;0.95;;
19547;SDS011;9919;58.014;11.826;2024-02-21T04:32:33;0.55;;;0.50;;
19547;SDS011;9919;58.014;11.826;2024-02-21T04:34:35;0.50;;;0.50;;
19547;SDS011;9919;58.014;11.826;2024-02-21T04:36:36;1.15;;;0.60;;
19547;SDS011;9919;58.014;11.826;2024-02-21T04:38:37;0.80;;;0.32;;
19547;SDS011;9919;58.014;11.826;2024-02-21T04:40:39;1.48;;;0.60;;
19547;SDS011;9919;58.014;11.826;2024-02-21T04:42:40;1.98;;;0.60;;
19547;SDS011;9919;58.014;11.826;2024-02-21T04:44:42;0.38;;;0.38;;
19547;SDS011;9919;58.014;11.826;2024-02-21T04:46:44;0.30;;;0.30;;
19547;SDS011;9919;58.014;11.826;2024-02-21T04:48:45;2.10;;;0.68;;
19547;SDS011;9919;58.014;11.826;2024-02-21T04:50:46;0.60;;;0.50;;
19547;SDS011;9919;58.014;11.826;2024-02-21T04:52:48;1.00;;;0.57;;
19547;SDS011;9919;58.014;11.826;2024-02-21T04:54:49;1.27;;;0.95;;
19547;SDS011;9919;58.014;11.826;2024-02-21T04:56:51;0.80;;;0.50;;
19547;SDS011;9919;58.014;11.826;2024-02-21T04:58:53;0.40;;;0.40;;
19547;SDS011;9919;58.014;11.826;2024-02-21T05:00:55;0.32;;;0.32;;
19547;SDS011;9919;58.014;11.826;2024-02-21T05:02:56;0.50;;;0.43;;
19547;SDS011;9919;58.014;11.826;2024-02-21T05:04:58;0.45;;;0.45;;
19547;SDS011;9919;58.014;11.826;2024-02-21T05:07:00;0.30;;;0.30;;
19547;SDS011;9919;58.014;11.826;2024-02-21T05:09:01;0.55;;;0.55;;
19547;SDS011;9919;58.014;11.826;2024-02-21T05:11:03;0.45;;;0.45;;
19547;SDS011;9919;58.014;11.826;2024-02-21T05:13:04;1.55;;;0.50;;
19547;SDS011;9919;58.014;11.826;2024-02-21T05:15:06;0.32;;;0.32;;
19547;SDS011;9919;58.014;11.826;2024-02-21T05:17:08;0.20;;;0.20;;
19547;SDS011;9919;58.014;11.826;2024-02-21T05:19:10;0.40;;;0.40;;
19547;SDS011;9919;58.014;11.826;2024-02-21T05:21:12;0.10;;;0.10;;
19547;SDS011;9919;58.014;11.826;2024-02-21T05:23:13;0.10;;;0.10;;
19547;SDS011;9919;58.014;11.826;2024-02-21T05:25:15;0.95;;;0.60;;
19547;SDS011;9919;58.014;11.826;2024-02-21T05:27:16;0.40;;;0.40;;
19547;SDS011;9919;58.014;11.826;2024-02-21T05:29:18;1.55;;;0.32;;
19547;SDS011;9919;58.014;11.826;2024-02-21T05:31:19;0.45;;;0.45;;
19547;SDS011;9919;58.014;11.826;2024-02-21T05:33:24;0.57;;;0.57;;
19547;SDS011;9919;58.014;11.826;2024-02-21T05:35:26;1.65;;;0.50;;
19547;SDS011;9919;58.014;11.826;2024-02-21T05:37:28;0.60;;;0.50;;
19547;SDS011;9919;58.014;11.826;2024-02-21T05:39:29;0.30;;;0.30;;
19547;SDS011;9919;58.014;11.826;2024-02-21T05:41:30;1.48;;;0.40;;
19547;SDS011;9919;58.014;11.826;2024-02-21T05:43:32;0.38;;;0.38;;
19547;SDS011;9919;58.014;11.826;2024-02-21T05:45:33;0.30;;;0.30;;
19547;SDS011;9919;58.014;11.826;2024-02-21T05:47:34;0.45;;;0.45;;
19547;SDS011;9919;58.014;11.826;2024-02-21T05:49:36;0.47;;;0.45;;
19547;SDS011;9919;58.014;11.826;2024-02-21T05:51:38;1.92;;;0.50;;
19547;SDS011;9919;58.014;11.826;2024-02-21T05:53:40;0.40;;;0.40;;
19547;SDS011;9919;58.014;11.826;2024-02-21T05:55:41;0.38;;;0.20;;
19547;SDS011;9919;58.014;11.826;2024-02-21T05:57:43;0.85;;;0.30;;
19547;SDS011;9919;58.014;11.826;2024-02-21T05:59:44;0.80;;;0.68;;
19547;SDS011;9919;58.014;11.826;2024-02-21T06:01:45;0.45;;;0.45;;
19547;SDS011;9919;58.014;11.826;2024-02-21T06:03:54;0.17;;;0.17;;
19547;SDS011;9919;58.014;11.826;2024-02-21T06:05:56;0.57;;;0.57;;
19547;SDS011;9919;58.014;11.826;2024-02-21T06:07:57;0.65;;;0.32;;
19547;SDS011;9919;58.014;11.826;2024-02-21T06:10:00;0.57;;;0.45;;
19547;SDS011;9919;58.014;11.826;2024-02-21T06:12:02;0.20;;;0.20;;
19547;SDS011;9919;58.014;11.826;2024-02-21T06:14:03;0.35;;;0.35;;
19547;SDS011;9919;58.014;11.826;2024-02-21T06:16:05;0.52;;;0.50;;
19547;SDS011;9919;58.014;11.826;2024-02-21T06:18:07;0.40;;;0.40;;
19547;SDS011;9919;58.014;11.826;2024-02-21T06:20:08;0.40;;;0.40;;
19547;SDS011;9919;58.014;11.826;2024-02-21T06:22:10;0.17;;;0.17;;
19547;SDS011;9919;58.014;11.826;2024-02-21T06:24:12;0.68;;;0.52;;
19547;SDS011;9919;58.014;11.826;2024-02-21T06:26:13;3.00;;;0.52;;
19547;SDS011;9919;58.014;11.826;2024-02-21T06:28:15;0.73;;;0.50;;
19547;SDS011;9919;58.014;11.826;2024-02-21T06:30:17;0.22;;;0.20;;
19547;SDS011;9919;58.014;11.826;2024-02-21T06:32:18;0.60;;;0.60;;
19547;SDS011;9919;58.014;11.826;2024-02-21T06:34:20;1.05;;;0.50;;
19547;SDS011;9919;58.014;11.826;2024-02-21T06:36:21;0.50;;;0.50;;
19547;SDS011;9919;58.014;11.826;2024-02-21T06:38:23;1.48;;;0.70;;
19547;SDS011;9919;58.014;11.826;2024-02-21T06:40:24;1.17;;;0.52;;
19547;SDS011;9919;58.014;11.826;2024-02-21T06:42:26;0.75;;;0.30;;
19547;SDS011;9919;58.014;11.826;2024-02-21T06:44:27;0.65;;;0.65;;
19547;SDS011;9919;58.014;11.826;2024-02-21T06:46:29;2.90;;;0.75;;
19547;SDS011;9919;58.014;11.826;2024-02-21T06:48:30;0.63;;;0.47;;
19547;SDS011;9919;58.014;11.826;2024-02-21T06:50:32;0.52;;;0.52;;
19547;SDS011;9919;58.014;11.826;2024-02-21T06:52:33;0.47;;;0.43;;
19547;SDS011;9919;58.014;11.826;2024-02-21T06:54:35;0.25;;;0.25;;
19547;SDS011;9919;58.014;11.826;2024-02-21T06:56:36;0.40;;;0.40;;
19547;SDS011;9919;58.014;11.826;2024-02-21T06:58:39;0.43;;;0.40;;
19547;SDS011;9919;58.014;11.826;2024-02-21T07:00:42;0.35;;;0.35;;
19547;SDS011;9919;58.014;11.826;2024-02-21T07:02:43;0.22;;;0.22;;
19547;SDS011;9919;58.014;11.826;2024-02-21T07:04:45;0.35;;;0.35;;
19547;SDS011;9919;58.014;11.826;2024-02-21T07:06:46;1.13;;;0.43;;
19547;SDS011;9919;58.014;11.826;2024-02-21T07:08:48;0.38;;;0.30;;
19547;SDS011;9919;58.014;11.826;2024-02-21T07:10:49;3.20;;;0.50;;
19547;SDS011;9919;58.014;11.826;2024-02-21T07:12:50;0.28;;;0.22;;
19547;SDS011;9919;58.014;11.826;2024-02-21T07:14:52;1.60;;;0.30;;
19547;SDS011;9919;58.014;11.826;2024-02-21T07:16:54;0.20;;;0.20;;
19547;SDS011;9919;58.014;11.826;2024-02-21T07:18:57;1.42;;;0.50;;
19547;SDS011;9919;58.014;11.826;2024-02-21T07:20:58;1.00;;;0.32;;
19547;SDS011;9919;58.014;11.826;2024-02-21T07:22:59;0.60;;;0.30;;
19547;SDS011;9919;58.014;11.826;2024-02-21T07:25:01;0.40;;;0.40;;
19547;SDS011;9919;58.014;11.826;2024-02-21T07:27:02;1.17;;;0.30;;
19547;SDS011;9919;58.014;11.826;2024-02-21T07:29:04;0.40;;;0.40;;
19547;SDS011;9919;58.014;11.826;2024-02-21T07:31:05;0.30;;;0.30;;
19547;SDS011;9919;58.014;11.826;2024-02-21T07:33:07;0.98;;;0.47;;
19547;SDS011;9919;58.014;11.826;2024-02-21T07:35:08;0.75;;;0.40;;
19547;SDS011;9919;58.014;11.826;2024-02-21T07:37:12;1.08;;;0.45;;
19547;SDS011;9919;58.014;11.826;2024-02-21T07:39:14;0.60;;;0.50;;
19547;SDS011;9919;58.014;11.826;2024-02-21T07:41:15;0.50;;;0.50;;
19547;SDS011;9919;58.014;11.826;2024-02-21T07:43:16;0.32;;;0.32;;
19547;SDS011;9919;58.014;11.826;2024-02-21T07:45:18;0.77;;;0.40;;
19547;SDS011;9919;58.014;11.826;2024-02-21T07:47:21;0.57;;;0.57;;
19547;SDS011;9919;58.014;11.826;2024-02-21T07:49:23;0.55;;;0.55;;
19547;SDS011;9919;58.014;11.826;2024-02-21T07:51:27;0.40;;;0.40;;
19547;SDS011;9919;58.014;11.826;2024-02-21T07:53:28;0.25;;;0.25;;
19547;SDS011;9919;58.014;11.826;2024-02-21T07:55:30;0.20;;;0.20;;
19547;SDS011;9919;58.014;11.826;2024-02-21T07:57:31;0.20;;;0.20;;
19547;SDS011;9919;58.014;11.826;2024-02-21T07:59:33;0.30;;;0.30;;
19547;SDS011;9919;58.014;11.826;2024-02-21T08:01:35;0.38;;;0.38;;
19547;SDS011;9919;58.014;11.826;2024-02-21T08:03:36;0.30;;;0.30;;
19547;SDS011;9919;58.014;11.826;2024-02-21T08:05:37;0.52;;;0.30;;
19547;SDS011;9919;58.014;11.826;2024-02-21T08:07:39;0.28;;;0.28;;
19547;SDS011;9919;58.014;11.826;2024-02-21T08:09:42;0.68;;;0.43;;
19547;SDS011;9919;58.014;11.826;2024-02-21T08:11:44;0.47;;;0.43;;
19547;SDS011;9919;58.014;11.826;2024-02-21T08:13:45;0.30;;;0.30;;
19547;SDS011;9919;58.014;11.826;2024-02-21T08:15:46;1.85;;;0.55;;
19547;SDS011;9919;58.014;11.826;2024-02-21T08:17:48;4.75;;;0.50;;
19547;SDS011;9919;58.014;11.826;2024-02-21T08:19:49;1.17;;;0.45;;
19547;SDS011;9919;58.014;11.826;2024-02-21T08:21:51;0.52;;;0.45;;
19547;SDS011;9919;58.014;11.826;2024-02-21T08:23:52;1.75;;;0.82;;
19547;SDS011;9919;58.014;11.826;2024-02-21T08:25:54;1.00;;;0.50;;
19547;SDS011;9919;58.014;11.826;2024-02-21T08:27:57;0.63;;;0.60;;
19547;SDS011;9919;58.014;11.826;2024-02-21T08:29:59;0.45;;;0.30;;
19547;SDS011;9919;58.014;11.826;2024-02-21T08:32:01;1.67;;;0.65;;
19547;SDS011;9919;58.014;11.826;2024-02-21T08:34:02;2.05;;;0.43;;
19547;SDS011;9919;58.014;11.826;2024-02-21T08:36:04;0.30;;;0.30;;
19547;SDS011;9919;58.014;11.826;2024-02-21T08:38:05;0.20;;;0.20;;
19547;SDS011;9919;58.014;11.826;2024-02-21T08:40:07;0.75;;;0.30;;
19547;SDS011;9919;58.014;11.826;2024-02-21T08:42:08;0.40;;;0.40;;
19547;SDS011;9919;58.014;11.826;2024-02-21T08:44:10;0.00;;;0.00;;
19547;SDS011;9919;58.014;11.826;2024-02-21T08:46:11;2.78;;;0.50;;
19547;SDS011;9919;58.014;11.826;2024-02-21T08:48:13;2.42;;;0.40;;
19547;SDS011;9919;58.014;11.826;2024-02-21T08:50:14;1.17;;;0.40;;
19547;SDS011;9919;58.014;11.826;2024-02-21T08:52:15;0.20;;;0.20;;
19547;SDS011;9919;58.014;11.826;2024-02-21T08:54:17;0.45;;;0.45;;
19547;SDS011;9919;58.014;11.826;2024-02-21T08:56:19;0.30;;;0.30;;
19547;SDS011;9919;58.014;11.826;2024-02-21T08:58:21;0.60;;;0.60;;
19547;SDS011;9919;58.014;11.826;2024-02-21T09:00:24;0.47;;;0.47;;
19547;SDS011;9919;58.014;11.826;2024-02-21T09:02:27;1.75;;;0.50;;
19547;SDS011;9919;58.014;11.826;2024-02-21T09:04:28;0.45;;;0.22;;
19547;SDS011;9919;58.014;11.826;2024-02-21T09:06:30;0.20;;;0.20;;
19547;SDS011;9919;58.014;11.826;2024-02-21T09:08:33;0.32;;;0.32;;
19547;SDS011;9919;58.014;11.826;2024-02-21T09:10:35;0.30;;;0.30;;
19547;SDS011;9919;58.014;11.826;2024-02-21T09:12:36;0.30;;;0.30;;
19547;SDS011;9919;58.014;11.826;2024-02-21T09:14:38;2.17;;;0.35;;
19547;SDS011;9919;58.014;11.826;2024-02-21T09:16:39;0.30;;;0.30;;
19547;SDS011;9919;58.014;11.826;2024-02-21T09:18:41;0.60;;;0.47;;
19547;SDS011;9919;58.014;11.826;2024-02-21T09:20:43;0.30;;;0.30;;
19547;SDS011;9919;58.014;11.826;2024-02-21T09:22:44;0.20;;;0.20;;
19547;SDS011;9919;58.014;11.826;2024-02-21T09:24:46;0.38;;;0.20;;
19547;SDS011;9919;58.014;11.826;2024-02-21T09:26:48;0.10;;;0.10;;
19547;SDS011;9919;58.014;11.826;2024-02-21T09:28:49;0.20;;;0.20;;
19547;SDS011;9919;58.014;11.826;2024-02-21T09:30:51;0.17;;;0.17;;
19547;SDS011;9919;58.014;11.826;2024-02-21T09:32:52;1.02;;;0.57;;
19547;SDS011;9919;58.014;11.826;2024-02-21T09:34:54;2.65;;;0.85;;
19547;SDS011;9919;58.014;11.826;2024-02-21T09:36:55;0.20;;;0.20;;
19547;SDS011;9919;58.014;11.826;2024-02-21T09:38:57;0.47;;;0.40;;
19547;SDS011;9919;58.014;11.826;2024-02-21T09:40:59;0.47;;;0.40;;
19547;SDS011;9919;58.014;11.826;2024-02-21T09:43:20;0.30;;;0.30;;
19547;SDS011;9919;58.014;11.826;2024-02-21T09:45:22;0.22;;;0.22;;
19547;SDS011;9919;58.014;11.826;2024-02-21T09:47:40;0.40;;;0.40;;
19547;SDS011;9919;58.014;11.826;2024-02-21T09:49:48;0.22;;;0.22;;
19547;SDS011;9919;58.014;11.826;2024-02-21T09:51:49;0.20;;;0.20;;
19547;SDS011;9919;58.014;11.826;2024-02-21T09:53:52;0.47;;;0.47;;
19547;SDS011;9919;58.014;11.826;2024-02-21T09:55:54;0.35;;;0.35;;
19547;SDS011;9919;58.014;11.826;2024-02-21T09:57:56;0.43;;;0.43;;
19547;SDS011;9919;58.014;11.826;2024-02-21T09:59:58;0.20;;;0.20;;
19547;SDS011;9919;58.014;11.826;2024-02-21T10:02:00;0.95;;;0.70;;
19547;SDS011;9919;58.014;11.826;2024-02-21T10:04:01;0.25;;;0.25;;
19547;SDS011;9919;58.014;11.826;2024-02-21T10:06:04;0.22;;;0.20;;
19547;SDS011;9919;58.014;11.826;2024-02-21T10:08:06;0.35;;;0.35;;
19547;SDS011;9919;58.014;11.826;2024-02-21T10:10:07;0.22;;;0.22;;
19547;SDS011;9919;58.014;11.826;2024-02-21T10:12:10;0.40;;;0.20;;
19547;SDS011;9919;58.014;11.826;2024-02-21T10:14:12;0.20;;;0.20;;
19547;SDS011;9919;58.014;11.826;2024-02-21T10:16:15;0.20;;;0.20;;
19547;SDS011;9919;58.014;11.826;2024-02-21T10:18:17;0.22;;;0.22;;
19547;SDS011;9919;58.014;11.826;2024-02-21T10:20:19;0.30;;;0.30;;
19547;SDS011;9919;58.014;11.826;2024-02-21T10:22:21;1.85;;;0.22;;
19547;SDS011;9919;58.014;11.826;2024-02-21T10:24:28;0.88;;;0.75;;
19547;SDS011;9919;58.014;11.826;2024-02-21T10:26:30;0.30;;;0.30;;
19547;SDS011;9919;58.014;11.826;2024-02-21T10:28:32;0.38;;;0.35;;
19547;SDS011;9919;58.014;11.826;2024-02-21T10:30:33;0.28;;;0.28;;
19547;SDS011;9919;58.014;11.826;2024-02-21T10:32:35;0.45;;;0.43;;
19547;SDS011;9919;58.014;11.826;2024-02-21T10:34:37;0.30;;;0.30;;
19547;SDS011;9919;58.014;11.826;2024-02-21T10:36:39;0.30;;;0.30;;
19547;SDS011;9919;58.014;11.826;2024-02-21T10:38:41;0.50;;;0.50;;
19547;SDS011;9919;58.014;11.826;2024-02-21T10:40:42;0.03;;;0.03;;
19547;SDS011;9919;58.014;11.826;2024-02-21T10:42:44;0.13;;;0.13;;
19547;SDS011;9919;58.014;11.826;2024-02-21T10:44:45;0.05;;;0.05;;
19547;SDS011;9919;58.014;11.826;2024-02-21T10:46:51;0.10;;;0.10;;
19547;SDS011;9919;58.014;11.826;2024-02-21T10:49:12;0.25;;;0.25;;
19547;SDS011;9919;58.014;11.826;2024-02-21T10:51:17;0.20;;;0.20;;
19547;SDS011;9919;58.014;11.826;2024-02-21T10:53:23;0.20;;;0.20;;
19547;SDS011;9919;58.014;11.826;2024-02-21T10:55:33;0.22;;;0.22;;
19547;SDS011;9919;58.014;11.826;2024-02-21T10:57:42;0.30;;;0.30;;
19547;SDS011;9919;58.014;11.826;2024-02-21T10:59:44;0.13;;;0.13;;
19547;SDS011;9919;58.014;11.826;2024-02-21T11:01:46;0.30;;;0.17;;
19547;SDS011;9919;58.014;11.826;2024-02-21T11:03:47;0.10;;;0.10;;
19547;SDS011;9919;58.014;11.826;2024-02-21T11:05:51;0.25;;;0.17;;
19547;SDS011;9919;58.014;11.826;2024-02-21T11:07:53;0.75;;;0.40;;
19547;SDS011;9919;58.014;11.826;2024-02-21T11:09:54;0.40;;;0.25;;
19547;SDS011;9919;58.014;11.826;2024-02-21T11:11:55;0.20;;;0.20;;
19547;SDS011;9919;58.014;11.826;2024-02-21T11:14:05;0.30;;;0.30;;
19547;SDS011;9919;58.014;11.826;2024-02-21T11:16:10;0.20;;;0.20;;
19547;SDS011;9919;58.014;11.826;2024-02-21T11:18:23;0.10;;;0.10;;
19547;SDS011;9919;58.014;11.826;2024-02-21T11:22:40;0.30;;;0.30;;
19547;SDS011;9919;58.014;11.826;2024-02-21T11:24:42;0.90;;;0.50;;
19547;SDS011;9919;58.014;11.826;2024-02-21T11:26:44;0.20;;;0.20;;
19547;SDS011;9919;58.014;11.826;2024-02-21T11:28:59;0.28;;;0.28;;
19547;SDS011;9919;58.014;11.826;2024-02-21T11:31:08;0.98;;;0.40;;
19547;SDS011;9919;58.014;11.826;2024-02-21T11:33:16;1.00;;;0.35;;
19547;SDS011;9919;58.014;11.826;2024-02-21T11:35:20;0.20;;;0.20;;
19547;SDS011;9919;58.014;11.826;2024-02-21T11:37:24;0.10;;;0.10;;
19547;SDS011;9919;58.014;11.826;2024-02-21T11:39:27;0.20;;;0.20;;
19547;SDS011;9919;58.014;11.826;2024-02-21T11:41:28;0.40;;;0.40;;
19547;SDS011;9919;58.014;11.826;2024-02-21T11:43:30;0.20;;;0.20;;
19547;SDS011;9919;58.014;11.826;2024-02-21T11:45:31;0.20;;;0.20;;
19547;SDS011;9919;58.014;11.826;2024-02-21T11:47:33;0.20;;;0.20;;
19547;SDS011;9919;58.014;11.826;2024-02-21T11:49:39;0.20;;;0.20;;
19547;SDS011;9919;58.014;11.826;2024-02-21T11:51:46;0.43;;;0.38;;
19547;SDS011;9919;58.014;11.826;2024-02-21T11:53:48;0.30;;;0.30;;
19547;SDS011;9919;58.014;11.826;2024-02-21T11:55:51;0.25;;;0.25;;
19547;SDS011;9919;58.014;11.826;2024-02-21T11:57:52;0.43;;;0.20;;
19547;SDS011;9919;58.014;11.826;2024-02-21T11:59:54;0.30;;;0.30;;
19547;SDS011;9919;58.014;11.826;2024-02-21T12:01:55;0.30;;;0.30;;
19547;SDS011;9919;58.014;11.826;2024-02-21T12:03:58;0.20;;;0.20;;
19547;SDS011;9919;58.014;11.826;2024-02-21T12:06:00;0.08;;;0.08;;
19547;SDS011;9919;58.014;11.826;2024-02-21T12:08:03;0.13;;;0.13;;
19547;SDS011;9919;58.014;11.826;2024-02-21T12:10:11;0.28;;;0.28;;
19547;SDS011;9919;58.014;11.826;2024-02-21T12:12:13;0.30;;;0.30;;
19547;SDS011;9919;58.014;11.826;2024-02-21T12:14:17;0.32;;;0.32;;
19547;SDS011;9919;58.014;11.826;2024-02-21T12:16:19;0.20;;;0.20;;
19547;SDS011;9919;58.014;11.826;2024-02-21T12:18:21;0.47;;;0.32;;